F/V Fleur Des Vagues — FPEJ — position and weather

sailwx.info

Track history (hours):
 
Tides and Currents Weather Stations Pressure Air Temp Water Temp Dewpoint Dewpoint Depression Visibility Wind Speed Wind Dir Waves Ship Positions

F/V Fleur Des Vagues

Last reported at 2016-Aug-27 11:33 UTC. Time now 2016-Aug-27 11:46 UTC.
Position N 46°33' W 001°59'.

Length 16 m.

Type: Fishing. MMSI: 227893000.

Date/timePositionNaut miles runAvg speedWind from/ knotsBaromVisibWave heightAir tempDewpointWater temp
2016-Aug-27 11:33N 46°33' W 001°59'2 2.3
2016-Aug-27 10:30N 46°34' W 002°02'2 1.7
2016-Aug-27 09:32N 46°33' W 002°00'1 0.6
2016-Aug-27 08:31N 46°34' W 002°00'4 3.5
2016-Aug-27 07:21N 46°30' W 001°59'0 0.5
2016-Aug-27 06:26N 46°30' W 001°59'1 0.5
2016-Aug-27 04:31N 46°30' W 001°58'0 0.2
2016-Aug-27 03:33N 46°30' W 001°58'1 1.0
2016-Aug-27 02:33N 46°29' W 001°59'1 0.8
2016-Aug-27 01:33N 46°29' W 001°58'4 4.4
2016-Aug-27 00:34N 46°29' W 001°52'3 3.4
2016-Aug-26 23:33N 46°30' W 001°47'0 0.0
2016-Aug-26 22:34N 46°30' W 001°47'0 0.0
2016-Aug-26 21:34N 46°30' W 001°47'0 0.0
2016-Aug-26 20:34N 46°30' W 001°47'0 0.0
2016-Aug-26 19:34N 46°30' W 001°47'0 0.0
2016-Aug-26 18:33N 46°30' W 001°47'0 0.0
2016-Aug-26 17:34N 46°30' W 001°47'0 0.0
2016-Aug-26 16:34N 46°30' W 001°47'0 0.0
2016-Aug-26 15:33N 46°30' W 001°47'0 0.0
2016-Aug-26 14:34N 46°30' W 001°47'5 2.3
2016-Aug-26 12:34N 46°29' W 001°54'3 3.3
2016-Aug-26 11:33N 46°29' W 001°59'1 0.7
2016-Aug-26 10:34N 46°30' W 001°59'0 0.3
2016-Aug-26 09:34N 46°30' W 001°59'0 0.2
2016-Aug-26 08:33N 46°30' W 001°59'0 0.2
2016-Aug-26 07:34N 46°30' W 001°58'1 0.9
2016-Aug-26 06:34N 46°31' W 001°58'1 0.3
2016-Aug-26 04:34N 46°30' W 001°58'1 1.0
2016-Aug-26 03:34N 46°29' W 001°59'1 1.0
2016-Aug-26 02:33N 46°30' W 001°58'0 0.4
2016-Aug-26 01:33N 46°29' W 001°58'4 4.4
2016-Aug-26 00:34N 46°29' W 001°52'4 3.6
2016-Aug-25 23:34N 46°30' W 001°47'0 0.0
2016-Aug-25 22:33N 46°30' W 001°47'0 0.0
2016-Aug-25 21:33N 46°30' W 001°47'0 0.0
2016-Aug-25 20:34N 46°30' W 001°47'0 0.0
2016-Aug-25 19:34N 46°30' W 001°47'0 0.0
2016-Aug-25 18:34N 46°30' W 001°47'0 0.0
2016-Aug-25 17:33N 46°30' W 001°47'0 0.0
2016-Aug-25 16:34N 46°30' W 001°47'0 0.0
2016-Aug-25 15:33N 46°30' W 001°47'0 0.0
2016-Aug-25 14:34N 46°30' W 001°47'0 0.0
2016-Aug-25 13:33N 46°30' W 001°47'0 0.0
2016-Aug-25 12:34N 46°30' W 001°47'1 1.1
2016-Aug-25 11:34N 46°29' W 001°48'7 7.3
2016-Aug-25 10:33N 46°29' W 001°58'1 0.6
2016-Aug-25 09:33N 46°30' W 001°59'2 2.1
2016-Aug-25 08:33N 46°31' W 001°56'2 2.4
2016-Aug-25 07:33N 46°30' W 001°59'0 0.5
2016-Aug-25 06:34N 46°29' W 001°59'1 0.5
2016-Aug-25 04:34N 46°30' W 001°58'1 1.4
2016-Aug-25 03:34N 46°29' W 001°60'2 1.5
2016-Aug-25 02:33N 46°30' W 001°58'1 0.8
2016-Aug-25 01:34N 46°30' W 001°58'1 1.4
2016-Aug-25 00:33N 46°30' W 001°60'1 1.2
2016-Aug-24 23:34N 46°30' W 001°59'1 0.9
2016-Aug-24 22:34N 46°30' W 001°57'0 0.0
2016-Aug-24 21:34N 46°30' W 001°57'0 0.0
2016-Aug-24 20:34N 46°31' W 001°57'0 0.0
2016-Aug-24 19:33N 46°31' W 001°57'0 0.0
2016-Aug-24 18:34N 46°31' W 001°57'0 0.0
2016-Aug-24 17:34N 46°31' W 001°57'0 0.0
2016-Aug-24 16:34N 46°31' W 001°57'0 0.1
2016-Aug-24 15:34N 46°31' W 001°57'0 0.0
2016-Aug-24 14:34N 46°31' W 001°57'0 0.0
2016-Aug-24 13:33N 46°31' W 001°57'0 0.0
2016-Aug-24 12:33N 46°31' W 001°57'2 1.5
2016-Aug-24 11:34N 46°30' W 001°59'1 0.6
2016-Aug-24 10:34N 46°29' W 001°59'7 6.8
2016-Aug-24 09:33N 46°28' W 001°49'2 1.7
2016-Aug-24 08:34N 46°30' W 001°47'0 0.2
2016-Aug-24 07:34N 46°30' W 001°47'0 0.0
2016-Aug-24 06:33N 46°30' W 001°47'  
2016-Aug-18 09:33N 46°30' W 001°47'1 1.1
2016-Aug-18 08:33N 46°29' W 001°47'8 7.5
2016-Aug-18 07:34N 46°27' W 001°58'3 3.2
2016-Aug-18 06:33N 46°27' W 002°02'0 0.4
2016-Aug-18 05:34N 46°26' W 002°02'1 0.8
2016-Aug-18 04:32N 46°26' W 002°01'1 1.1
2016-Aug-18 03:33N 46°27' W 002°01'1 1.4
2016-Aug-18 02:33N 46°26' W 002°01'2 2.3
2016-Aug-18 01:33N 46°28' W 002°02'2 1.6
2016-Aug-18 00:33N 46°27' W 002°01'1 1.1
2016-Aug-17 23:33N 46°26' W 001°60'0 0.0
2016-Aug-17 22:33N 46°26' W 001°60'0 0.1
2016-Aug-17 21:33N 46°26' W 001°60'0 0.2
2016-Aug-17 20:33N 46°26' W 002°00'0 0.0
2016-Aug-17 19:33N 46°26' W 002°00'0 0.1
2016-Aug-17 18:33N 46°26' W 001°60'0 0.1
2016-Aug-17 17:33N 46°26' W 001°60'0 0.0
2016-Aug-17 16:33N 46°26' W 001°60'0 0.0
2016-Aug-17 15:33N 46°26' W 001°60'0 0.0
2016-Aug-17 14:33N 46°26' W 001°60'0 0.0
2016-Aug-17 13:33N 46°26' W 001°60'0 0.0
2016-Aug-17 12:33N 46°26' W 001°60'2 1.6
2016-Aug-17 11:33N 46°27' W 002°01'2 2.2
2016-Aug-17 10:33N 46°25' W 002°01'  
Track history (hours):
 
Tides and Currents Weather Stations Pressure Air Temp Water Temp Dewpoint Dewpoint Depression Visibility Wind Speed Wind Dir Waves Ship Positions

F/V Fleur Des Vagues

Last reported at 2016-Aug-27 11:33 UTC. Time now 2016-Aug-27 11:46 UTC.
Position N 46°33' W 001°59'.

Length 16 m.

Type: Fishing. MMSI: 227893000.

Date/timePositionNaut miles runAvg speedWind from/ knotsBaromVisibWave heightAir tempDewpointWater temp
2016-Aug-27 11:33N 46°33' W 001°59'2 2.3
2016-Aug-27 10:30N 46°34' W 002°02'2 1.7
2016-Aug-27 09:32N 46°33' W 002°00'1 0.6
2016-Aug-27 08:31N 46°34' W 002°00'4 3.5
2016-Aug-27 07:21N 46°30' W 001°59'0 0.5
2016-Aug-27 06:26N 46°30' W 001°59'1 0.5
2016-Aug-27 04:31N 46°30' W 001°58'0 0.2
2016-Aug-27 03:33N 46°30' W 001°58'1 1.0
2016-Aug-27 02:33N 46°29' W 001°59'1 0.8
2016-Aug-27 01:33N 46°29' W 001°58'4 4.4
2016-Aug-27 00:34N 46°29' W 001°52'3 3.4
2016-Aug-26 23:33N 46°30' W 001°47'0 0.0
2016-Aug-26 22:34N 46°30' W 001°47'0 0.0
2016-Aug-26 21:34N 46°30' W 001°47'0 0.0
2016-Aug-26 20:34N 46°30' W 001°47'0 0.0
2016-Aug-26 19:34N 46°30' W 001°47'0 0.0
2016-Aug-26 18:33N 46°30' W 001°47'0 0.0
2016-Aug-26 17:34N 46°30' W 001°47'0 0.0
2016-Aug-26 16:34N 46°30' W 001°47'0 0.0
2016-Aug-26 15:33N 46°30' W 001°47'0 0.0
2016-Aug-26 14:34N 46°30' W 001°47'5 2.3
2016-Aug-26 12:34N 46°29' W 001°54'3 3.3
2016-Aug-26 11:33N 46°29' W 001°59'1 0.7
2016-Aug-26 10:34N 46°30' W 001°59'0 0.3
2016-Aug-26 09:34N 46°30' W 001°59'0 0.2
2016-Aug-26 08:33N 46°30' W 001°59'0 0.2
2016-Aug-26 07:34N 46°30' W 001°58'1 0.9
2016-Aug-26 06:34N 46°31' W 001°58'1 0.3
2016-Aug-26 04:34N 46°30' W 001°58'1 1.0
2016-Aug-26 03:34N 46°29' W 001°59'1 1.0
2016-Aug-26 02:33N 46°30' W 001°58'0 0.4
2016-Aug-26 01:33N 46°29' W 001°58'4 4.4
2016-Aug-26 00:34N 46°29' W 001°52'4 3.6
2016-Aug-25 23:34N 46°30' W 001°47'0 0.0
2016-Aug-25 22:33N 46°30' W 001°47'0 0.0
2016-Aug-25 21:33N 46°30' W 001°47'0 0.0
2016-Aug-25 20:34N 46°30' W 001°47'0 0.0
2016-Aug-25 19:34N 46°30' W 001°47'0 0.0
2016-Aug-25 18:34N 46°30' W 001°47'0 0.0
2016-Aug-25 17:33N 46°30' W 001°47'0 0.0
2016-Aug-25 16:34N 46°30' W 001°47'0 0.0
2016-Aug-25 15:33N 46°30' W 001°47'0 0.0
2016-Aug-25 14:34N 46°30' W 001°47'0 0.0
2016-Aug-25 13:33N 46°30' W 001°47'0 0.0
2016-Aug-25 12:34N 46°30' W 001°47'1 1.1
2016-Aug-25 11:34N 46°29' W 001°48'7 7.3
2016-Aug-25 10:33N 46°29' W 001°58'1 0.6
2016-Aug-25 09:33N 46°30' W 001°59'2 2.1
2016-Aug-25 08:33N 46°31' W 001°56'2 2.4
2016-Aug-25 07:33N 46°30' W 001°59'0 0.5
2016-Aug-25 06:34N 46°29' W 001°59'1 0.5
2016-Aug-25 04:34N 46°30' W 001°58'1 1.4
2016-Aug-25 03:34N 46°29' W 001°60'2 1.5
2016-Aug-25 02:33N 46°30' W 001°58'1 0.8
2016-Aug-25 01:34N 46°30' W 001°58'1 1.4
2016-Aug-25 00:33N 46°30' W 001°60'1 1.2
2016-Aug-24 23:34N 46°30' W 001°59'1 0.9
2016-Aug-24 22:34N 46°30' W 001°57'0 0.0
2016-Aug-24 21:34N 46°30' W 001°57'0 0.0
2016-Aug-24 20:34N 46°31' W 001°57'0 0.0
2016-Aug-24 19:33N 46°31' W 001°57'0 0.0
2016-Aug-24 18:34N 46°31' W 001°57'0 0.0
2016-Aug-24 17:34N 46°31' W 001°57'0 0.0
2016-Aug-24 16:34N 46°31' W 001°57'0 0.1
2016-Aug-24 15:34N 46°31' W 001°57'0 0.0
2016-Aug-24 14:34N 46°31' W 001°57'0 0.0
2016-Aug-24 13:33N 46°31' W 001°57'0 0.0
2016-Aug-24 12:33N 46°31' W 001°57'2 1.5
2016-Aug-24 11:34N 46°30' W 001°59'1 0.6
2016-Aug-24 10:34N 46°29' W 001°59'7 6.8
2016-Aug-24 09:33N 46°28' W 001°49'2 1.7
2016-Aug-24 08:34N 46°30' W 001°47'0 0.2
2016-Aug-24 07:34N 46°30' W 001°47'0 0.0
2016-Aug-24 06:33N 46°30' W 001°47'  
2016-Aug-18 09:33N 46°30' W 001°47'1 1.1
2016-Aug-18 08:33N 46°29' W 001°47'8 7.5
2016-Aug-18 07:34N 46°27' W 001°58'3 3.2
2016-Aug-18 06:33N 46°27' W 002°02'0 0.4
2016-Aug-18 05:34N 46°26' W 002°02'1 0.8
2016-Aug-18 04:32N 46°26' W 002°01'1 1.1
2016-Aug-18 03:33N 46°27' W 002°01'1 1.4
2016-Aug-18 02:33N 46°26' W 002°01'2 2.3
2016-Aug-18 01:33N 46°28' W 002°02'2 1.6
2016-Aug-18 00:33N 46°27' W 002°01'1 1.1
2016-Aug-17 23:33N 46°26' W 001°60'0 0.0
2016-Aug-17 22:33N 46°26' W 001°60'0 0.1
2016-Aug-17 21:33N 46°26' W 001°60'0 0.2
2016-Aug-17 20:33N 46°26' W 002°00'0 0.0
2016-Aug-17 19:33N 46°26' W 002°00'0 0.1
2016-Aug-17 18:33N 46°26' W 001°60'0 0.1
2016-Aug-17 17:33N 46°26' W 001°60'0 0.0
2016-Aug-17 16:33N 46°26' W 001°60'0 0.0
2016-Aug-17 15:33N 46°26' W 001°60'0 0.0
2016-Aug-17 14:33N 46°26' W 001°60'0 0.0
2016-Aug-17 13:33N 46°26' W 001°60'0 0.0
2016-Aug-17 12:33N 46°26' W 001°60'2 1.6
2016-Aug-17 11:33N 46°27' W 002°01'2 2.2
2016-Aug-17 10:33N 46°25' W 002°01'  

Dump ship's entire track history